Time;durP1;ratioP1;P1;durP2;ratioP2;P2;SDS_P1;SDS_P2;PMS_P1;PMS_P2;Temp;Humidity;BMP_temperature;BMP_pressure;BME280_temperature;BME280_humidity;BME280_pressure;Samples;Min_cycle;Max_cycle;Signal;HPM_P1;HPM_P2
2022/11/17 00:01:10;;;;;;;13.57;8.18;;;;;;;10.15;100.00;91974.09;5109777;28;20105;-70
2022/11/17 00:03:38;;;;;;;13.18;7.75;;;;;;;10.18;100.00;91982.34;5110189;28;20051;-70
2022/11/17 00:06:05;;;;;;;12.60;7.18;;;;;;;10.20;100.00;91975.19;5113947;28;20056;-72
2022/11/17 00:08:33;;;;;;;14.35;7.90;;;;;;;10.22;100.00;91975.72;5114267;28;20052;-70
2022/11/17 00:11:00;;;;;;;13.48;8.02;;;;;;;10.24;100.00;91968.56;5113472;28;20040;-70
2022/11/17 00:16:12;;;;;;;13.85;7.90;;;;;;;10.21;100.00;91974.16;5109760;28;20058;-71
2022/11/17 00:21:25;;;;;;;13.35;8.02;;;;;;;10.22;100.00;91968.00;5113152;28;20057;-71
2022/11/17 00:23:52;;;;;;;13.23;8.30;;;;;;;10.21;100.00;91966.47;5113821;28;20051;-71
2022/11/17 00:26:20;;;;;;;13.45;7.75;;;;;;;10.21;100.00;91969.81;5113755;28;20048;-71
2022/11/17 00:28:47;;;;;;;11.40;7.88;;;;;;;10.22;100.00;91966.25;5113851;28;20457;-71
2022/11/17 00:34:07;;;;;;;12.53;7.20;;;;;;;10.27;100.00;91958.59;5113547;28;20532;-71
2022/11/17 00:36:39;;;;;;;15.15;7.25;;;;;;;10.22;100.00;91952.63;5113310;28;20096;-71
2022/11/17 00:39:06;;;;;;;11.23;6.68;;;;;;;10.18;100.00;91944.63;5113470;28;20112;-71
2022/11/17 00:41:33;;;;;;;11.52;6.85;;;;;;;10.22;100.00;91945.72;5113467;28;20451;-71
2022/11/17 00:44:00;;;;;;;14.75;7.13;;;;;;;10.29;100.00;91955.81;5108084;28;20048;-71
2022/11/17 00:46:26;;;;;;;13.32;7.68;;;;;;;10.38;100.00;91953.59;5081409;28;20045;-71
2022/11/17 00:48:53;;;;;;;12.70;7.25;;;;;;;10.39;100.00;91958.50;5082989;28;20055;-71
2022/11/17 00:51:22;;;;;;;13.55;7.70;;;;;;;10.39;100.00;91943.09;5083052;28;20044;-71
2022/11/17 00:53:49;;;;;;;13.20;8.18;;;;;;;10.41;100.00;91940.25;5077299;28;20048;-71
2022/11/17 00:56:16;;;;;;;11.57;6.82;;;;;;;10.45;100.00;91936.25;5082109;28;20092;-71
2022/11/17 00:58:43;;;;;;;14.25;7.55;;;;;;;10.45;100.00;91948.31;5083341;28;20131;-71
2022/11/17 01:01:09;;;;;;;15.77;7.20;;;;;;;10.42;100.00;91937.47;5082064;28;20056;-71
2022/11/17 01:03:36;;;;;;;11.63;6.82;;;;;;;10.42;100.00;91942.59;5082158;28;20056;-71
2022/11/17 01:06:05;;;;;;;10.93;7.00;;;;;;;10.37;100.00;91934.06;5083119;28;20048;-71
2022/11/17 01:08:34;;;;;;;13.77;7.10;;;;;;;10.42;100.00;91939.28;5081907;28;20083;-71
2022/11/17 01:11:09;;;;;;;12.43;7.40;;;;;;;10.39;100.00;91925.13;5080885;28;20080;-71
2022/11/17 01:13:36;;;;;;;12.52;6.63;;;;;;;10.47;100.00;91941.13;5082479;28;20098;-71
2022/11/17 01:16:05;;;;;;;11.52;7.57;;;;;;;10.47;100.00;91946.28;5080188;28;20178;-71
2022/11/17 01:18:31;;;;;;;11.43;7.22;;;;;;;10.49;100.00;91941.66;5082544;28;20451;-71
2022/11/17 01:21:07;;;;;;;11.50;7.53;;;;;;;10.54;100.00;91942.50;5082909;28;20098;-71
2022/11/17 01:23:35;;;;;;;;;;;;;;;10.63;100.00;91939.50;5078170;28;20048;-71
2022/11/17 01:26:06;;;;;;;10.30;6.47;;;;;;;10.59;100.00;91931.50;5089060;28;19927;-71
2022/11/17 01:28:34;;;;;;;13.00;7.35;;;;;;;10.54;100.00;91928.88;5098785;28;20048;-71
2022/11/17 01:31:03;;;;;;;11.38;7.80;;;;;;;10.58;100.00;91919.69;5112311;28;20508;-72
2022/11/17 01:33:30;;;;;;;11.63;7.18;;;;;;;10.54;100.00;91910.91;5112579;28;20047;-72
2022/11/17 01:36:01;;;;;;;10.85;6.55;;;;;;;10.54;100.00;91911.69;5112490;28;20051;-72
2022/11/17 01:38:28;;;;;;;9.90;6.93;;;;;;;10.58;100.00;91909.41;5112259;28;20036;-72
2022/11/17 01:40:58;;;;;;;16.27;8.00;;;;;;;10.53;100.00;91905.03;5112220;28;20040;-72
2022/11/17 01:43:39;;;;;;;9.98;6.63;;;;;;;10.56;100.00;91899.38;5111853;28;20073;-72
2022/11/17 01:46:14;;;;;;;13.48;7.88;;;;;;;10.45;100.00;91884.91;5082627;28;20044;-72
2022/11/17 01:48:43;;;;;;;14.07;7.57;;;;;;;10.46;100.00;91885.69;5083061;28;20044;-72
2022/11/17 01:51:11;;;;;;;15.00;7.03;;;;;;;10.59;100.00;91892.22;5077122;28;20047;-72
2022/11/17 01:53:38;;;;;;;11.63;6.82;;;;;;;10.63;100.00;91893.28;5080136;28;20110;-72
2022/11/17 01:56:11;;;;;;;11.18;7.40;;;;;;;10.65;100.00;91878.44;5081830;28;20117;-72
2022/11/17 01:58:43;;;;;;;11.57;7.70;;;;;;;10.42;100.00;91855.31;5081769;28;20044;-72
2022/11/17 02:01:09;;;;;;;10.90;7.25;;;;;;;10.63;100.00;91883.00;5080963;28;20056;-72
2022/11/17 02:03:38;;;;;;;12.88;6.82;;;;;;;10.61;100.00;91882.47;5080797;28;20237;-72
2022/11/17 02:06:08;;;;;;;10.80;6.63;;;;;;;10.39;100.00;91842.97;5077865;28;20135;-72
2022/11/17 02:08:38;;;;;;;12.68;6.53;;;;;;;10.61;100.00;91883.28;5083857;28;20048;-72
2022/11/17 02:11:11;;;;;;;9.27;6.95;;;;;;;10.63;100.00;91893.28;5090718;28;20458;-71
2022/11/17 02:13:40;;;;;;;9.93;6.82;;;;;;;10.68;100.00;91890.75;5090895;28;20086;-71
2022/11/17 02:16:10;;;;;;;11.57;7.30;;;;;;;10.74;100.00;91889.78;5090395;28;20105;-71
2022/11/17 02:18:37;;;;;;;11.68;7.30;;;;;;;10.81;100.00;91889.59;5090496;28;20063;-71
2022/11/17 02:21:23;;;;;;;12.15;7.78;;;;;;;10.83;100.00;91884.97;5090692;28;20064;-71
2022/11/17 02:24:07;;;;;;;;;;;;;;;10.90;100.00;91892.50;5091252;28;20048;-71
2022/11/17 02:27:18;;;;;;;11.87;7.70;;;;;;;10.88;100.00;91885.03;5090192;28;19923;-71
2022/11/17 02:29:55;;;;;;;11.00;7.00;;;;;;;10.84;100.00;91891.69;5058747;28;20044;-71
2022/11/17 02:32:26;;;;;;;11.52;6.60;;;;;;;10.86;100.00;91881.16;5090196;28;20048;-71
2022/11/17 02:34:59;;;;;;;9.85;6.53;;;;;;;10.82;100.00;91883.44;5089949;28;20526;-72
2022/11/17 02:37:31;;;;;;;11.48;7.25;;;;;;;10.85;100.00;91877.03;5090291;28;20044;-72
2022/11/17 02:40:02;;;;;;;11.95;6.80;;;;;;;10.85;100.00;91871.91;5090531;28;20044;-72
2022/11/17 02:45:26;;;;;;;10.43;6.30;;;;;;;10.81;100.00;91874.97;5090267;28;20177;-72
2022/11/17 02:47:58;;;;;;;8.40;5.95;;;;;;;10.83;100.00;91885.78;5089490;28;20579;-72
2022/11/17 02:50:27;;;;;;;10.23;6.13;;;;;;;10.89;100.00;91883.25;5089814;28;20452;-72
2022/11/17 02:52:54;;;;;;;11.05;6.82;;;;;;;10.92;100.00;91882.78;5090267;28;20089;-72
2022/11/17 02:55:21;;;;;;;10.13;6.45;;;;;;;10.95;100.00;91874.56;5089859;28;20044;-72
2022/11/17 02:57:48;;;;;;;10.95;6.90;;;;;;;10.98;100.00;91878.44;5089552;28;20113;-72
2022/11/17 03:00:17;;;;;;;13.63;6.53;;;;;;;11.02;100.00;91872.56;5089448;28;20515;-72
2022/11/17 03:03:09;;;;;;;9.63;6.00;;;;;;;11.06;100.00;91876.19;5090028;28;20056;-72
2022/11/17 03:05:43;;;;;;;14.82;7.47;;;;;;;11.02;100.00;91867.41;5088447;28;20071;-72
2022/11/17 03:08:24;;;;;;;14.60;7.35;;;;;;;10.94;100.00;91855.03;5089131;28;20558;-72
2022/11/17 03:10:57;;;;;;;12.13;7.05;;;;;;;10.88;100.00;91843.94;5089102;28;20040;-72
2022/11/17 03:13:30;;;;;;;14.30;7.55;;;;;;;10.87;100.00;91837.25;5089574;28;20096;-72
2022/11/17 03:16:05;;;;;;;12.43;7.30;;;;;;;10.94;100.00;91858.38;5089523;28;20044;-72
2022/11/17 03:18:40;;;;;;;13.47;6.83;;;;;;;10.91;100.00;91852.94;5089539;28;20070;-72
2022/11/17 03:21:14;;;;;;;12.45;6.63;;;;;;;10.81;100.00;91857.00;5089390;28;20085;-72
2022/11/17 03:23:44;;;;;;;11.68;6.53;;;;;;;10.79;100.00;91859.00;5089696;28;20106;-72
2022/11/17 03:26:16;;;;;;;15.38;6.97;;;;;;;10.79;100.00;91858.25;5089220;28;20681;-72
2022/11/17 03:28:46;;;;;;;12.25;6.82;;;;;;;10.66;100.00;91844.78;5089662;28;20056;-72
2022/11/17 03:31:15;;;;;;;11.80;6.45;;;;;;;10.76;100.00;91858.72;5089649;28;20055;-73
2022/11/17 03:33:46;;;;;;;11.68;6.63;;;;;;;10.73;100.00;91860.00;5089220;28;20176;-73
2022/11/17 03:36:16;;;;;;;15.75;7.43;;;;;;;10.64;100.00;91833.22;5082490;28;20048;-73
2022/11/17 03:38:49;;;;;;;17.35;8.43;;;;;;;10.72;100.00;91850.75;5086099;28;20044;-72
2022/11/17 03:41:19;;;;;;;11.38;6.70;;;;;;;10.48;100.00;91817.69;5109845;28;20055;-73
2022/11/17 03:43:50;;;;;;;13.98;7.47;;;;;;;10.62;100.00;91838.59;5109526;28;20093;-73
2022/11/17 03:46:21;;;;;;;14.77;6.90;;;;;;;10.62;100.00;91843.72;5109503;28;20087;-73
2022/11/17 03:48:53;;;;;;;12.50;7.50;;;;;;;10.54;100.00;91829.53;5109737;28;20089;-73
2022/11/17 03:51:23;;;;;;;14.38;7.55;;;;;;;10.61;100.00;91838.84;5109700;28;20179;-72
2022/11/17 03:53:50;;;;;;;10.90;6.82;;;;;;;10.59;100.00;91835.75;5101302;28;20044;-73
2022/11/17 03:56:31;;;;;;;10.13;6.57;;;;;;;10.61;100.00;91844.75;5090810;28;20059;-73
2022/11/17 03:59:01;;;;;;;10.15;6.22;;;;;;;10.61;100.00;91839.63;5110016;28;20047;-72
2022/11/17 04:01:31;;;;;;;10.77;5.82;;;;;;;10.55;100.00;91820.03;5109925;28;20051;-72
2022/11/17 04:04:00;;;;;;;13.70;7.28;;;;;;;10.63;100.00;91832.44;5109948;28;20048;-72
2022/11/17 04:06:26;;;;;;;9.98;6.55;;;;;;;10.50;100.00;91810.50;5109529;28;20048;-72
2022/11/17 04:08:53;;;;;;;9.20;6.32;;;;;;;10.59;100.00;91818.53;5109883;28;20052;-72
2022/11/17 04:16:48;;;;;;;14.38;6.05;;;;;;;10.54;100.00;91811.56;5109579;28;20110;-72
2022/11/17 04:19:16;;;;;;;9.57;5.78;;;;;;;10.51;100.00;91808.72;5109513;28;20483;-72
2022/11/17 04:21:42;;;;;;;9.43;6.45;;;;;;;10.49;100.00;91798.69;5109572;28;20055;-72
2022/11/17 04:24:09;;;;;;;9.73;6.72;;;;;;;10.46;100.00;91806.09;5109594;28;20083;-72
2022/11/17 04:29:20;;;;;;;8.68;5.70;;;;;;;10.41;100.00;91799.09;5109559;28;20547;-72
2022/11/17 04:31:46;;;;;;;9.95;6.15;;;;;;;10.36;100.00;91792.13;5109613;28;20079;-72
2022/11/17 04:34:13;;;;;;;11.32;6.18;;;;;;;10.35;100.00;91792.34;5108996;28;20039;-72
2022/11/17 04:36:45;;;;;;;12.65;6.95;;;;;;;10.35;100.00;91795.72;5109550;28;20193;-73
2022/11/17 04:39:13;;;;;;;10.80;7.15;;;;;;;10.38;100.00;91794.44;5109464;28;20451;-72
2022/11/17 04:42:00;;;;;;;12.75;7.55;;;;;;;10.35;100.00;91793.16;5099599;28;20077;-73
2022/11/17 04:44:28;;;;;;;14.20;8.27;;;;;;;10.33;100.00;91784.13;5088867;28;20056;-73
2022/11/17 04:46:56;;;;;;;13.93;7.35;;;;;;;10.33;100.00;91782.34;5109039;28;20092;-73
2022/11/17 04:49:24;;;;;;;14.10;7.43;;;;;;;10.12;100.00;91756.50;5109397;28;20044;-72
2022/11/17 04:51:53;;;;;;;15.93;8.07;;;;;;;10.20;100.00;91762.19;5097123;28;20413;-72
2022/11/17 04:54:23;;;;;;;13.43;8.35;;;;;;;10.32;100.00;91770.50;5095776;28;20044;-73
2022/11/17 04:56:50;;;;;;;22.83;11.73;;;;;;;10.29;100.00;91764.06;5102977;28;20055;-72
2022/11/17 04:59:17;;;;;;;14.82;8.63;;;;;;;10.13;100.00;91740.09;5112969;28;20043;-72
2022/11/17 05:01:44;;;;;;;15.60;8.80;;;;;;;10.33;100.00;91766.97;5113293;28;20458;-72
2022/11/17 05:04:12;;;;;;;15.55;8.25;;;;;;;10.32;100.00;91762.06;5113160;28;20051;-72
2022/11/17 05:06:41;;;;;;;15.02;8.65;;;;;;;10.35;100.00;91769.25;5113010;28;20047;-72
2022/11/17 05:09:11;;;;;;;16.42;7.40;;;;;;;10.35;100.00;91762.34;5112834;28;20108;-72
2022/11/17 05:14:24;;;;;;;15.82;7.82;;;;;;;10.34;100.00;91760.00;5112243;28;20059;-72
2022/11/17 05:17:05;;;;;;;15.55;8.32;;;;;;;10.35;100.00;91751.28;5112479;28;20093;-72
2022/11/17 05:19:33;;;;;;;13.90;8.05;;;;;;;10.40;100.00;91747.00;5112338;28;20141;-72
2022/11/17 05:22:01;;;;;;;12.90;7.13;;;;;;;10.37;100.00;91739.00;5112849;28;20051;-72
2022/11/17 05:24:28;;;;;;;13.90;7.93;;;;;;;10.45;100.00;91751.41;5112290;28;20485;-72
2022/11/17 05:26:55;;;;;;;13.18;7.78;;;;;;;10.45;100.00;91755.78;5111816;28;20631;-72
2022/11/17 05:29:23;;;;;;;13.27;7.80;;;;;;;10.45;100.00;91761.69;5111838;28;20055;-72
2022/11/17 05:31:49;;;;;;;13.15;7.75;;;;;;;10.47;100.00;91769.13;5112552;28;20549;-72
2022/11/17 05:34:17;;;;;;;12.52;7.80;;;;;;;10.45;100.00;91764.25;5112283;28;20055;-72
2022/11/17 05:36:44;;;;;;;10.95;7.28;;;;;;;10.47;100.00;91767.34;5112378;28;20108;-72
2022/11/17 05:39:12;;;;;;;13.35;7.75;;;;;;;10.50;100.00;91769.41;5112493;28;20055;-72
2022/11/17 05:41:40;;;;;;;11.60;7.65;;;;;;;10.49;100.00;91767.88;5112116;28;20116;-72
2022/11/17 05:44:07;;;;;;;14.68;7.20;;;;;;;10.48;100.00;91768.91;5112392;28;20048;-72
2022/11/17 05:46:34;;;;;;;10.77;6.88;;;;;;;10.43;100.00;91768.84;5112251;28;20112;-72
2022/11/17 05:49:01;;;;;;;13.57;7.25;;;;;;;10.44;100.00;91762.69;5112265;28;20108;-73
2022/11/17 05:51:27;;;;;;;12.07;7.15;;;;;;;10.41;100.00;91751.09;5111693;28;20729;-73
2022/11/17 05:53:54;;;;;;;13.55;8.20;;;;;;;10.34;100.00;91740.25;5102153;28;20048;-72
2022/11/17 05:56:38;;;;;;;16.85;8.52;;;;;;;10.26;100.00;91735.56;5094335;28;20059;-72
2022/11/17 05:59:18;;;;;;;12.77;8.45;;;;;;;10.33;100.00;91745.63;5110257;28;20052;-72
2022/11/17 06:01:49;;;;;;;14.10;8.82;;;;;;;10.23;100.00;91733.50;5111589;28;20055;-72
2022/11/17 06:04:18;;;;;;;15.48;8.48;;;;;;;10.26;100.00;91746.63;5111788;27;20048;-72
2022/11/17 06:06:45;;;;;;;13.00;8.50;;;;;;;10.37;100.00;91760.28;5077965;28;20348;-72
2022/11/17 06:09:12;;;;;;;12.25;7.82;;;;;;;10.29;100.00;91747.91;5110437;28;20071;-72
2022/11/17 06:11:39;;;;;;;13.80;8.57;;;;;;;10.32;100.00;91756.94;5111423;28;20135;-72
2022/11/17 06:14:05;;;;;;;13.82;8.95;;;;;;;10.31;100.00;91756.13;5111572;28;20120;-72
2022/11/17 06:16:38;;;;;;;14.32;9.13;;;;;;;10.39;100.00;91765.97;5111709;28;20092;-72
2022/11/17 06:19:09;;;;;;;13.95;9.23;;;;;;;10.43;100.00;91768.84;5111506;28;20580;-72
2022/11/17 06:21:36;;;;;;;14.25;7.82;;;;;;;10.40;100.00;91770.09;5111580;28;20081;-72
2022/11/17 06:24:07;;;;;;;13.27;8.57;;;;;;;10.50;100.00;91786.59;5111064;28;20088;-72
2022/11/17 06:26:34;;;;;;;15.88;8.02;;;;;;;10.56;100.00;91801.06;5111139;28;20101;-72
2022/11/17 06:29:04;;;;;;;13.80;7.75;;;;;;;10.56;100.00;91821.59;5111351;28;20044;-72
2022/11/17 06:31:32;;;;;;;15.75;8.50;;;;;;;10.59;100.00;91828.03;5111391;28;20106;-72
2022/11/17 06:34:02;;;;;;;13.35;8.75;;;;;;;10.56;100.00;91863.44;5110962;28;20515;-72
2022/11/17 06:36:29;;;;;;;16.42;9.50;;;;;;;10.61;100.00;91882.47;5110789;28;20497;-72
2022/11/17 06:38:56;;;;;;;18.48;9.93;;;;;;;10.61;100.00;91900.47;5110773;28;20048;-72
2022/11/17 06:41:23;;;;;;;17.42;10.40;;;;;;;10.62;100.00;91920.78;5111261;28;20402;-72
2022/11/17 06:43:49;;;;;;;15.20;11.00;;;;;;;10.60;100.00;91948.47;5111432;28;20051;-72
2022/11/17 06:46:17;;;;;;;16.65;8.27;;;;;;;10.50;100.00;91990.22;5110700;28;20497;-72
2022/11/17 06:48:44;;;;;;;11.20;7.35;;;;;;;10.31;100.00;92017.94;5110677;28;20146;-72
2022/11/17 06:51:12;;;;;;;13.57;8.68;;;;;;;10.34;100.00;92019.25;5110864;28;20055;-72
2022/11/17 06:53:39;;;;;;;11.63;5.80;;;;;;;10.37;100.00;92005.94;5105240;28;20094;-72
2022/11/17 06:56:07;;;;;;;9.52;4.47;;;;;;;10.27;100.00;92014.28;5087571;28;20052;-72
2022/11/17 06:58:35;;;;;;;13.05;5.47;;;;;;;10.26;100.00;92017.84;5110571;28;20195;-71
2022/11/17 07:01:03;;;;;;;8.82;4.40;;;;;;;10.27;100.00;92011.72;5110880;28;20039;-72
2022/11/17 07:03:30;;;;;;;4.45;2.55;;;;;;;10.18;100.00;92001.06;5110475;28;20077;-72
2022/11/17 07:06:00;;;;;;;7.43;3.70;;;;;;;10.18;100.00;91995.19;5110626;28;20104;-72
2022/11/17 07:08:29;;;;;;;10.32;4.80;;;;;;;10.29;100.00;91989.94;5110478;28;20131;-72
2022/11/17 07:10:55;;;;;;;23.95;13.52;;;;;;;10.36;100.00;91986.41;5110222;28;20463;-72
2022/11/17 07:13:23;;;;;;;16.55;9.65;;;;;;;10.36;100.00;91974.34;5110462;28;20124;-73
2022/11/17 07:15:51;;;;;;;11.60;6.57;;;;;;;10.37;100.00;91973.34;5109887;28;20081;-72
2022/11/17 07:18:18;;;;;;;10.07;5.53;;;;;;;10.25;100.00;91972.69;5110421;28;20104;-72
2022/11/17 07:20:46;;;;;;;6.68;3.47;;;;;;;10.19;100.00;91964.16;5110222;28;20116;-72
2022/11/17 07:23:12;;;;;;;5.50;3.10;;;;;;;10.13;100.00;91950.47;5110432;28;20116;-72
2022/11/17 07:25:40;;;;;;;5.22;3.30;;;;;;;10.07;100.00;91940.38;5110444;28;20483;-72
2022/11/17 07:28:08;;;;;;;5.50;3.13;;;;;;;10.05;100.00;91939.84;5110205;28;20052;-72
2022/11/17 07:30:35;;;;;;;5.93;2.50;;;;;;;9.99;100.00;91923.59;5110312;27;20047;-72
2022/11/17 07:33:01;;;;;;;4.00;2.38;;;;;;;9.83;100.00;91922.66;5109893;28;20458;-72
2022/11/17 07:35:29;;;;;;;3.88;2.22;;;;;;;9.81;100.00;91916.97;5087499;28;20052;-72
2022/11/17 07:38:00;;;;;;;3.88;2.10;;;;;;;9.78;100.00;91923.38;5104868;28;20408;-72
2022/11/17 07:40:27;;;;;;;4.32;1.67;;;;;;;9.74;100.00;91910.25;5110169;28;20047;-72
2022/11/17 07:42:55;;;;;;;3.85;1.55;;;;;;;9.69;100.00;91899.13;5109886;28;20055;-72
2022/11/17 07:45:23;;;;;;;4.05;1.40;;;;;;;9.70;100.00;91890.41;5110478;28;20100;-72
2022/11/17 07:47:55;;;;;;;4.68;1.70;;;;;;;9.60;100.00;91886.72;5109722;28;20050;-72
2022/11/17 07:50:22;;;;;;;3.83;2.13;;;;;;;9.62;100.00;91886.47;5109740;28;20138;-72
2022/11/17 07:52:49;;;;;;;7.13;3.53;;;;;;;9.63;100.00;91888.81;5109444;28;20501;-72
2022/11/17 07:55:16;;;;;;;5.68;2.20;;;;;;;9.60;100.00;91879.03;5081478;28;20110;-72
2022/11/17 07:57:43;;;;;;;6.90;3.40;;;;;;;9.66;100.00;91887.56;5109670;28;20112;-72
2022/11/17 08:00:13;;;;;;;3.15;1.85;;;;;;;9.66;100.00;91889.34;5109740;28;20101;-73
2022/11/17 08:02:40;;;;;;;2.33;1.13;;;;;;;9.73;100.00;91898.41;5108424;28;20047;-71
2022/11/17 08:05:07;;;;;;;4.75;4.25;;;;;;;9.76;100.00;91918.47;5110060;28;20096;-69
2022/11/17 08:07:34;;;;;;;7.07;4.95;;;;;;;9.88;100.00;91932.97;5109782;28;20044;-72
2022/11/17 08:10:00;;;;;;;4.53;2.92;;;;;;;9.94;100.00;91929.47;5109659;28;20100;-72
2022/11/17 08:12:27;;;;;;;3.75;1.55;;;;;;;10.02;100.00;91938.53;5109641;28;20043;-72
2022/11/17 08:14:54;;;;;;;3.90;2.20;;;;;;;10.01;100.00;91942.13;5109766;28;20056;-72
2022/11/17 08:17:22;;;;;;;23.67;18.85;;;;;;;10.09;100.00;91946.06;5109506;28;20096;-72
2022/11/17 08:19:48;;;;;;;15.57;12.20;;;;;;;10.10;100.00;91948.38;5109684;28;20051;-72
2022/11/17 08:22:15;;;;;;;5.75;3.72;;;;;;;10.09;100.00;91941.69;5109441;28;20048;-72
2022/11/17 08:24:42;;;;;;;8.98;4.93;;;;;;;10.17;100.00;91958.47;5110002;28;20404;-72
2022/11/17 08:27:09;;;;;;;11.48;6.97;;;;;;;10.27;100.00;91958.59;5113288;28;20077;-72
2022/11/17 08:29:35;;;;;;;5.28;2.65;;;;;;;10.37;100.00;91957.19;5113728;28;20122;-72
2022/11/17 08:32:02;;;;;;;7.28;4.25;;;;;;;10.45;100.00;91959.34;5113808;28;20120;-72
2022/11/17 08:34:30;;;;;;;3.38;1.58;;;;;;;10.52;100.00;91965.06;5113562;28;20043;-72
2022/11/17 08:36:57;;;;;;;2.65;1.35;;;;;;;10.53;100.00;91953.81;5113821;28;20466;-71
2022/11/17 08:39:23;;;;;;;2.10;0.90;;;;;;;10.66;100.00;91959.56;5113594;28;20040;-71
2022/11/17 08:41:51;;;;;;;6.22;3.10;;;;;;;10.72;100.00;91962.97;5113418;28;20071;-71
2022/11/17 08:44:18;;;;;;;13.65;8.38;;;;;;;10.76;100.00;91964.03;5092481;28;20398;-71
2022/11/17 08:46:44;;;;;;;12.60;6.22;;;;;;;10.79;100.00;91966.91;5084782;28;20630;-71
2022/11/17 08:49:11;;;;;;;45.97;25.45;;;;;;;10.86;100.00;91960.78;5082275;28;20386;-71
2022/11/17 08:51:39;;;;;;;53.33;29.88;;;;;;;10.92;100.00;91950.31;5080571;28;20075;-71
2022/11/17 08:54:06;;;;;;;111.68;53.75;;;;;;;11.02;100.00;91956.59;5074305;28;20056;-71
2022/11/17 08:56:33;;;;;;;30.08;16.30;;;;;;;10.99;100.00;91955.28;5071970;28;20082;-71
2022/11/17 08:59:01;;;;;;;13.43;6.47;;;;;;;11.04;100.00;91962.25;5071816;28;20090;-71
2022/11/17 09:01:28;;;;;;;35.53;17.95;;;;;;;11.17;100.00;91953.38;5071427;28;20090;-71
2022/11/17 09:03:55;;;;;;;23.23;11.70;;;;;;;11.24;100.00;91951.38;5071883;28;20076;-72
2022/11/17 09:06:22;;;;;;;10.35;5.13;;;;;;;11.03;100.00;91915.25;5071868;28;20464;-71
2022/11/17 09:08:53;;;;;;;25.95;13.13;;;;;;;11.30;100.00;91944.50;5070802;28;20056;-72
2022/11/17 09:11:20;;;;;;;84.65;41.50;;;;;;;11.39;100.00;91939.66;5071933;28;20040;-71
2022/11/17 09:13:46;;;;;;;30.58;15.48;;;;;;;11.40;100.00;91926.56;5071896;28;20052;-71
2022/11/17 09:16:14;;;;;;;9.55;4.15;;;;;;;11.43;100.00;91936.34;5095179;28;20048;-71
2022/11/17 09:18:41;;;;;;;5.20;2.55;;;;;;;11.38;100.00;91938.88;5112858;28;20080;-71
2022/11/17 09:21:10;;;;;;;7.90;3.80;;;;;;;11.44;100.00;91937.13;5112383;28;20083;-71
2022/11/17 09:23:37;;;;;;;4.43;2.38;;;;;;;11.54;100.00;91942.34;5110007;28;20129;-72
2022/11/17 09:26:07;;;;;;;3.83;2.45;;;;;;;11.65;100.00;91944.97;5089048;28;20048;-71
2022/11/17 09:28:34;;;;;;;9.00;4.55;;;;;;;11.79;100.00;91940.22;5111413;28;20043;-71
2022/11/17 09:31:06;;;;;;;14.13;9.18;;;;;;;11.92;100.00;91944.91;5112436;28;20051;-71
2022/11/17 09:33:32;;;;;;;6.93;3.72;;;;;;;11.99;100.00;91955.75;5112633;28;20105;-71
2022/11/17 09:35:59;;;;;;;9.95;5.63;;;;;;;12.07;100.00;91957.09;5112631;28;20447;-71
2022/11/17 09:38:26;;;;;;;8.93;4.22;;;;;;;12.13;100.00;91953.53;5101678;28;20081;-71
2022/11/17 09:40:54;;;;;;;6.70;2.85;;;;;;;12.10;100.00;91945.53;5112217;28;20039;-71
2022/11/17 09:43:27;;;;;;;3.70;1.58;;;;;;;12.06;100.00;91950.41;5112404;28;20092;-71
2022/11/17 09:45:57;;;;;;;3.03;1.30;;;;;;;12.10;100.00;91951.47;5112476;28;20134;-71
2022/11/17 09:48:36;;;;;;;5.20;1.40;;;;;;;12.14;100.00;91955.06;5111996;28;20043;-71
2022/11/17 09:51:07;;;;;;;1.85;1.08;;;;;;;12.10;100.00;91955.84;5099910;28;20048;-71
2022/11/17 09:53:43;;;;;;;4.32;2.85;;;;;;;11.98;100.00;91925.88;5094876;28;20044;-71
2022/11/17 09:56:12;;;;;;;2.70;1.58;;;;;;;12.05;100.00;91956.59;5091066;28;20391;-71
2022/11/17 09:58:44;;;;;;;4.78;2.17;;;;;;;12.03;100.00;91948.28;5098513;28;20131;-72
2022/11/17 10:01:12;;;;;;;6.78;4.57;;;;;;;12.12;100.00;91951.97;5092127;28;20123;-71
2022/11/17 10:03:42;;;;;;;10.00;4.00;;;;;;;12.03;100.00;91928.50;5111157;28;20075;-71
2022/11/17 10:06:13;;;;;;;13.15;9.23;;;;;;;12.21;100.00;91943.81;5111748;28;20104;-71
2022/11/17 10:08:46;;;;;;;13.07;9.00;;;;;;;12.21;100.00;91939.41;5111561;28;20100;-71
2022/11/17 10:11:33;;;;;;;4.30;2.78;;;;;;;12.13;100.00;91945.81;5111858;28;20055;-72
2022/11/17 10:14:12;;;;;;;8.80;4.93;;;;;;;12.09;100.00;91942.19;5111573;28;20083;-72
2022/11/17 10:16:42;;;;;;;6.97;5.35;;;;;;;12.23;100.00;91950.22;5111690;28;20080;-71
2022/11/17 10:19:16;;;;;;;6.22;4.50;;;;;;;12.27;100.00;91945.38;5078100;28;20542;-71
2022/11/17 10:21:44;;;;;;;5.18;4.30;;;;;;;12.30;100.00;91952.56;5088438;28;21499;-71
2022/11/17 10:24:10;;;;;;;8.25;6.05;;;;;;;12.36;100.00;91949.00;5090332;28;20098;-71
2022/11/17 10:26:47;;;;;;;10.80;5.68;;;;;;;12.45;100.00;91946.72;5090077;28;20060;-72
2022/11/17 10:29:22;;;;;;;15.82;11.93;;;;;;;12.34;100.00;91921.94;5091016;28;20056;-71
2022/11/17 10:31:49;;;;;;;11.25;8.35;;;;;;;12.49;100.00;91944.44;5097457;28;20522;-71
2022/11/17 10:34:31;;;;;;;10.50;4.78;;;;;;;12.41;100.00;91930.22;5102682;28;20119;-71
2022/11/17 10:37:05;;;;;;;12.20;6.03;;;;;;;12.48;100.00;91940.28;5089679;28;20071;-71
2022/11/17 10:39:35;;;;;;;11.02;7.40;;;;;;;12.44;100.00;91924.56;5091736;28;20109;-71
2022/11/17 10:42:15;;;;;;;12.95;6.47;;;;;;;12.50;100.00;91941.56;5111252;28;20043;-71
2022/11/17 10:44:50;;;;;;;6.90;3.83;;;;;;;12.45;100.00;91938.22;5104099;28;20044;-71
2022/11/17 10:47:38;;;;;;;7.07;4.60;;;;;;;12.51;100.00;91939.78;5077790;28;20098;-72
2022/11/17 10:50:12;;;;;;;9.27;4.88;;;;;;;12.54;100.00;91940.06;5079348;28;20052;-72
2022/11/17 10:52:39;;;;;;;17.20;8.30;;;;;;;12.56;100.00;91942.38;5070168;28;20045;-71
2022/11/17 10:55:25;;;;;;;5.53;2.50;;;;;;;12.53;100.00;91953.97;5072042;28;20160;-71
2022/11/17 10:58:02;;;;;;;5.38;2.42;;;;;;;12.49;100.00;91952.16;5089246;28;20080;-72
2022/11/17 11:00:37;;;;;;;4.47;2.10;;;;;;;12.50;100.00;91951.88;5085351;28;20048;-72
2022/11/17 11:03:17;;;;;;;4.50;1.02;;;;;;;12.48;100.00;91948.78;5078868;28;20110;-72
2022/11/17 11:06:06;;;;;;;7.57;3.55;;;;;;;12.43;100.00;91939.25;5070591;28;20081;-72
2022/11/17 11:08:41;;;;;;;3.83;1.70;;;;;;;12.56;100.00;91944.97;5070465;28;20052;-72
2022/11/17 11:11:15;;;;;;;2.90;1.10;;;;;;;12.45;100.00;91946.72;5084590;28;20048;-71
2022/11/17 11:13:48;;;;;;;4.50;1.50;;;;;;;12.56;100.00;91942.38;5110934;28;20112;-71
2022/11/17 11:16:16;;;;;;;4.43;1.88;;;;;;;12.61;100.00;91939.03;5110551;28;20048;-71
2022/11/17 11:18:43;;;;;;;4.40;1.77;;;;;;;12.69;100.00;91938.56;5110820;28;20048;-71
2022/11/17 11:21:18;;;;;;;5.47;2.00;;;;;;;12.75;100.00;91944.47;5110562;28;20117;-71
2022/11/17 11:23:55;;;;;;;4.10;2.25;;;;;;;12.78;100.00;91942.16;5110768;28;20485;-72
2022/11/17 11:26:40;;;;;;;3.42;1.45;;;;;;;12.81;100.00;91946.84;5110555;28;20048;-71
2022/11/17 11:29:18;;;;;;;6.95;1.60;;;;;;;12.71;100.00;91936.50;5109969;28;20409;-71
2022/11/17 11:31:59;;;;;;;3.50;1.17;;;;;;;12.66;100.00;91957.88;5110257;28;20451;-71
2022/11/17 11:34:51;;;;;;;2.58;1.10;;;;;;;12.62;100.00;91950.88;5110472;28;20048;-72
2022/11/17 11:37:18;;;;;;;2.70;0.95;;;;;;;12.59;100.00;91948.84;5091967;28;20044;-71
2022/11/17 11:39:55;;;;;;;4.68;2.60;;;;;;;12.48;100.00;91945.44;5091573;28;20052;-71
2022/11/17 11:42:36;;;;;;;6.93;3.63;;;;;;;12.52;100.00;91941.34;5097780;28;20048;-71
2022/11/17 11:45:18;;;;;;;9.32;4.95;;;;;;;12.46;100.00;91943.13;5094266;28;20117;-71
2022/11/17 11:48:16;;;;;;;6.28;2.30;;;;;;;12.45;100.00;91938.22;5103695;28;20047;-71
2022/11/17 11:50:55;;;;;;;6.22;3.33;;;;;;;12.46;100.00;91926.88;5084489;28;20056;-71
2022/11/17 11:53:28;;;;;;;9.50;4.72;;;;;;;12.54;100.00;91939.28;5108589;28;20063;-71
2022/11/17 11:56:07;;;;;;;7.68;4.53;;;;;;;12.52;100.00;91936.97;5084349;28;20078;-71
2022/11/17 11:58:34;;;;;;;11.35;5.63;;;;;;;12.58;100.00;91942.13;5109662;28;20055;-71